createdAt,value
2017-11-29T00:01:40.007Z,96333.45
2017-11-29T00:04:07.579Z,96337.33
2017-11-29T00:06:35.312Z,96328.60
2017-11-29T00:09:02.828Z,96338.17
2017-11-29T00:11:30.364Z,96333.23
2017-11-29T00:13:58.146Z,96324.06
2017-11-29T00:16:25.663Z,96332.41
2017-11-29T00:18:53.180Z,96320.56
2017-11-29T00:21:20.888Z,96318.30
2017-11-29T00:23:48.455Z,96314.47
2017-11-29T00:26:16.012Z,96316.55
2017-11-29T00:28:43.606Z,96305.32
2017-11-29T00:31:11.132Z,96306.12
2017-11-29T00:33:38.676Z,96309.57
2017-11-29T00:36:06.536Z,96306.27
2017-11-29T00:38:34.056Z,96302.52
2017-11-29T00:41:01.583Z,96302.03
2017-11-29T00:43:29.319Z,96302.11
2017-11-29T00:45:56.837Z,96299.60
2017-11-29T00:48:24.376Z,96301.65
2017-11-29T00:50:52.117Z,96301.42
2017-11-29T00:53:19.633Z,96306.17
2017-11-29T00:55:47.172Z,96308.52
2017-11-29T00:58:15.080Z,96315.91
2017-11-29T01:00:42.604Z,96306.41
2017-11-29T01:03:10.130Z,96310.83
2017-11-29T01:05:37.876Z,96308.91
2017-11-29T01:08:05.396Z,96298.85
2017-11-29T01:10:32.986Z,96295.69
2017-11-29T01:13:00.747Z,96289.69
2017-11-29T01:15:28.256Z,96287.05
2017-11-29T01:17:55.781Z,96287.57
2017-11-29T01:20:23.620Z,96286.91
2017-11-29T01:22:51.133Z,96287.28
2017-11-29T01:25:18.661Z,96279.78
2017-11-29T01:27:46.247Z,96282.29
2017-11-29T01:30:13.769Z,96278.41
2017-11-29T01:32:41.284Z,96275.48
2017-11-29T01:35:09.073Z,96272.92
2017-11-29T01:37:36.592Z,96274.63
2017-11-29T01:40:04.116Z,96274.20
2017-11-29T01:42:31.879Z,96272.77
2017-11-29T01:44:59.451Z,96274.70
2017-11-29T01:47:26.996Z,96270.89
2017-11-29T01:49:54.557Z,96273.70
2017-11-29T01:52:22.114Z,96266.42
2017-11-29T01:54:50.596Z,96270.04
2017-11-29T01:57:18.154Z,96265.34
2017-11-29T01:59:45.718Z,96261.45
2017-11-29T02:02:13.485Z,96261.50
2017-11-29T02:04:41.445Z,96256.20
2017-11-29T02:07:08.969Z,96253.31
2017-11-29T02:09:36.493Z,96254.09
2017-11-29T02:12:04.226Z,96260.28
2017-11-29T02:14:31.786Z,96257.84
2017-11-29T02:16:59.308Z,96255.25
2017-11-29T02:19:27.097Z,96252.73
2017-11-29T02:21:54.626Z,96247.06
2017-11-29T02:24:22.165Z,96244.40
2017-11-29T02:26:49.873Z,96244.70
2017-11-29T02:29:17.450Z,96236.28
2017-11-29T02:31:45.046Z,96232.14
2017-11-29T02:34:12.766Z,96233.78
2017-11-29T02:36:40.293Z,96236.06
2017-11-29T02:39:07.820Z,96240.31
2017-11-29T02:41:47.295Z,96246.28
2017-11-29T02:44:14.818Z,96244.48
2017-11-29T02:46:42.359Z,96241.53
2017-11-29T02:49:10.211Z,96243.12
2017-11-29T02:51:37.766Z,96236.53
2017-11-29T02:54:05.305Z,96238.13
2017-11-29T02:56:33.076Z,96238.60
2017-11-29T02:59:00.588Z,96247.47
2017-11-29T03:01:28.116Z,96236.21
2017-11-29T03:03:55.849Z,96240.22
2017-11-29T03:06:23.370Z,96238.56
2017-11-29T03:08:50.884Z,96227.54
2017-11-29T03:11:18.854Z,96235.28
2017-11-29T03:13:46.431Z,96236.80
2017-11-29T03:16:13.972Z,96235.62
2017-11-29T03:18:41.545Z,96233.95
2017-11-29T03:21:09.092Z,96230.80
2017-11-29T03:23:36.656Z,96230.84
2017-11-29T03:26:04.353Z,96230.55
2017-11-29T03:28:31.872Z,96231.25
2017-11-29T03:30:59.432Z,96223.30
2017-11-29T03:33:26.981Z,96226.32
2017-11-29T03:35:54.592Z,96223.64
2017-11-29T03:38:22.117Z,96227.00
2017-11-29T03:40:49.901Z,96228.25
2017-11-29T03:43:17.416Z,96227.73
2017-11-29T03:45:44.938Z,96231.87
2017-11-29T03:48:12.632Z,96227.71
2017-11-29T03:50:40.147Z,96223.77
2017-11-29T03:53:07.673Z,96228.78
2017-11-29T03:55:35.438Z,96226.65
2017-11-29T03:58:02.972Z,96220.27
2017-11-29T04:00:30.480Z,96217.29
2017-11-29T04:02:58.187Z,96212.39
2017-11-29T04:05:25.701Z,96206.44
2017-11-29T04:07:53.216Z,96211.96
2017-11-29T04:10:20.923Z,96208.78
2017-11-29T04:12:48.440Z,96209.90
2017-11-29T04:15:15.954Z,96216.73
2017-11-29T04:17:43.648Z,96206.13
2017-11-29T04:20:11.177Z,96208.90
2017-11-29T04:22:38.704Z,96200.40
2017-11-29T04:25:06.448Z,96196.62
2017-11-29T04:27:34.056Z,96196.29
2017-11-29T04:30:01.578Z,96196.22
2017-11-29T04:32:29.280Z,96194.16
2017-11-29T04:34:56.800Z,96188.36
2017-11-29T04:37:24.345Z,96184.52
2017-11-29T04:39:51.910Z,96177.53
2017-11-29T04:42:19.462Z,96179.77
2017-11-29T04:44:46.981Z,96181.80
2017-11-29T04:47:14.539Z,96173.22
2017-11-29T04:49:42.056Z,96174.12
2017-11-29T04:52:09.596Z,96175.19
2017-11-29T04:54:37.361Z,96176.31
2017-11-29T04:57:04.919Z,96176.98
2017-11-29T04:59:32.484Z,96176.81
2017-11-29T05:02:00.037Z,96176.05
2017-11-29T05:04:27.584Z,96176.50
2017-11-29T05:06:55.093Z,96171.67
2017-11-29T05:09:22.820Z,96175.86
2017-11-29T05:11:50.393Z,96177.08
2017-11-29T05:14:17.941Z,96174.58
2017-11-29T05:16:45.504Z,96177.18
2017-11-29T05:19:13.076Z,96176.38
2017-11-29T05:21:40.613Z,96172.86
2017-11-29T05:24:08.173Z,96180.01
2017-11-29T05:26:35.732Z,96185.34
2017-11-29T05:29:03.260Z,96185.02
2017-11-29T05:31:31.135Z,96177.63
2017-11-29T05:33:58.671Z,96174.25
2017-11-29T05:36:27.210Z,96174.92
2017-11-29T05:38:54.876Z,96172.01
2017-11-29T05:41:22.397Z,96171.20
2017-11-29T05:43:49.913Z,96170.56
2017-11-29T05:46:17.730Z,96170.78
2017-11-29T05:48:45.249Z,96179.53
2017-11-29T05:51:12.765Z,96176.28
2017-11-29T05:53:40.620Z,96168.78
2017-11-29T05:56:08.182Z,96173.97
2017-11-29T05:58:35.698Z,96178.52
2017-11-29T06:01:03.253Z,96181.24
2017-11-29T06:03:30.771Z,96183.31
2017-11-29T06:05:58.292Z,96186.27
2017-11-29T06:08:26.079Z,96185.35
2017-11-29T06:10:53.638Z,96187.14
2017-11-29T06:13:21.300Z,96188.64
2017-11-29T06:15:49.081Z,96185.52
2017-11-29T06:18:16.620Z,96181.67
2017-11-29T06:20:44.283Z,96187.80
2017-11-29T06:23:12.957Z,96180.78
2017-11-29T06:25:40.475Z,96187.78
2017-11-29T06:28:08.906Z,96188.09
2017-11-29T06:30:36.499Z,96185.92
2017-11-29T06:33:04.024Z,96181.92
2017-11-29T06:35:31.584Z,96182.44
2017-11-29T06:37:59.428Z,96188.27
2017-11-29T06:40:26.935Z,96188.45
2017-11-29T06:42:54.452Z,96193.15
2017-11-29T06:45:22.163Z,96194.81
2017-11-29T06:47:49.680Z,96185.10
2017-11-29T06:50:17.199Z,96200.84
2017-11-29T06:52:45.113Z,96193.64
2017-11-29T06:55:12.650Z,96199.64
2017-11-29T06:57:40.168Z,96193.28
2017-11-29T07:00:08.019Z,96202.86
2017-11-29T07:02:35.552Z,96205.63
2017-11-29T07:05:03.116Z,96207.45
2017-11-29T07:07:30.857Z,96208.60
2017-11-29T07:09:58.381Z,96208.06
2017-11-29T07:12:25.935Z,96212.61
2017-11-29T07:14:53.509Z,96210.77
2017-11-29T07:17:21.934Z,96213.82
2017-11-29T07:19:50.419Z,96209.38
2017-11-29T07:22:18.176Z,96216.11
2017-11-29T07:24:46.019Z,96208.25
2017-11-29T07:27:14.319Z,96210.22
2017-11-29T07:29:43.214Z,96218.62
2017-11-29T07:32:11.515Z,96223.02
2017-11-29T07:34:39.291Z,96225.31
2017-11-29T07:37:07.124Z,96226.63
2017-11-29T07:39:34.873Z,96226.05
2017-11-29T07:42:04.424Z,96228.49
2017-11-29T07:44:32.432Z,96231.14
2017-11-29T07:46:59.996Z,96228.48
2017-11-29T07:49:27.685Z,96226.13
2017-11-29T07:51:55.748Z,96242.78
2017-11-29T07:54:23.307Z,96238.43
2017-11-29T07:56:50.852Z,96237.83
2017-11-29T07:59:18.551Z,96242.90
2017-11-29T08:01:46.237Z,96243.15
2017-11-29T08:04:16.486Z,96242.70
2017-11-29T08:06:44.684Z,96242.28
2017-11-29T08:09:12.844Z,96242.20
2017-11-29T08:11:40.484Z,96243.20
2017-11-29T08:14:08.492Z,96243.44
2017-11-29T08:16:36.150Z,96242.15
2017-11-29T08:19:03.711Z,96243.02
2017-11-29T08:21:32.191Z,96236.11
2017-11-29T08:23:59.860Z,96238.91
2017-11-29T08:26:27.615Z,96237.27
2017-11-29T08:28:56.159Z,96236.30
2017-11-29T08:31:25.499Z,96238.81
2017-11-29T08:33:53.169Z,96239.42
2017-11-29T08:36:20.870Z,96237.23
2017-11-29T08:38:48.385Z,96239.74
2017-11-29T08:41:15.908Z,96244.87
2017-11-29T08:43:43.584Z,96241.79
2017-11-29T08:46:11.098Z,96242.61
2017-11-29T08:48:38.724Z,96242.20
2017-11-29T08:51:06.441Z,96232.44
2017-11-29T08:53:33.956Z,96241.28
2017-11-29T08:56:01.477Z,96240.73
2017-11-29T08:58:29.264Z,96240.48
2017-11-29T09:00:56.784Z,96250.16
2017-11-29T09:03:24.382Z,96253.88
2017-11-29T09:05:52.158Z,96245.31
2017-11-29T09:08:19.706Z,96242.53
2017-11-29T09:10:47.265Z,96244.53
2017-11-29T09:13:15.008Z,96237.86
2017-11-29T09:15:42.523Z,96238.50
2017-11-29T09:18:10.039Z,96239.80
2017-11-29T09:20:37.830Z,96239.59
2017-11-29T09:23:05.399Z,96240.49
2017-11-29T09:25:33.111Z,96247.85
2017-11-29T09:28:00.982Z,96242.50
2017-11-29T09:30:28.509Z,96253.84
2017-11-29T09:32:56.062Z,96251.27
2017-11-29T09:35:23.883Z,96255.09
2017-11-29T09:37:51.420Z,96254.70
2017-11-29T09:40:18.929Z,96256.25
2017-11-29T09:42:46.660Z,96260.27
2017-11-29T09:45:14.196Z,96252.71
2017-11-29T09:47:41.712Z,96256.98
2017-11-29T09:50:09.420Z,96253.86
2017-11-29T09:52:36.998Z,96254.20
2017-11-29T09:55:04.521Z,96246.97
2017-11-29T09:57:32.100Z,96245.63
2017-11-29T09:59:59.632Z,96240.47
2017-11-29T10:02:27.319Z,96243.50
2017-11-29T10:04:55.188Z,96247.62
2017-11-29T10:07:22.845Z,96245.51
2017-11-29T10:09:50.376Z,96243.16
2017-11-29T10:12:18.060Z,96242.22
2017-11-29T10:14:45.601Z,96242.67
2017-11-29T10:17:13.129Z,96241.98
2017-11-29T10:19:41.052Z,96245.50
2017-11-29T10:22:08.628Z,96247.55
2017-11-29T10:24:36.145Z,96247.02
2017-11-29T10:27:03.928Z,96245.47
2017-11-29T10:29:31.444Z,96243.23
2017-11-29T10:31:58.970Z,96242.95
2017-11-29T10:34:26.712Z,96244.55
2017-11-29T10:36:54.241Z,96234.92
2017-11-29T10:39:21.851Z,96245.14
2017-11-29T10:41:49.429Z,96240.95
2017-11-29T10:44:17.172Z,96245.50
2017-11-29T10:46:44.680Z,96244.72
2017-11-29T10:49:12.576Z,96239.19
2017-11-29T10:51:40.088Z,96244.55
2017-11-29T10:54:07.632Z,96242.06
2017-11-29T10:56:35.278Z,96238.54
2017-11-29T10:59:02.937Z,96234.22
2017-11-29T11:01:30.494Z,96235.97
2017-11-29T11:03:58.260Z,96238.14
2017-11-29T11:06:25.817Z,96232.74
2017-11-29T11:08:53.380Z,96227.67
2017-11-29T11:11:21.119Z,96229.92
2017-11-29T11:13:48.781Z,96225.64
2017-11-29T11:16:16.296Z,96222.39
2017-11-29T11:18:43.999Z,96222.52
2017-11-29T11:21:11.517Z,96228.09
2017-11-29T11:23:39.040Z,96223.40
2017-11-29T11:26:06.832Z,96225.70
2017-11-29T11:28:34.369Z,96224.06
2017-11-29T11:31:01.921Z,96226.44
2017-11-29T11:33:29.491Z,96225.19
2017-11-29T11:35:57.008Z,96233.38
2017-11-29T11:38:24.582Z,96225.57
2017-11-29T11:40:52.291Z,96225.22
2017-11-29T11:43:19.842Z,96229.77
2017-11-29T11:45:47.488Z,96224.19
2017-11-29T11:48:15.348Z,96223.62
2017-11-29T11:50:42.867Z,96218.48
2017-11-29T11:53:10.381Z,96222.09
2017-11-29T11:55:38.112Z,96223.70
2017-11-29T11:58:05.675Z,96226.34
2017-11-29T12:00:33.194Z,96219.13
2017-11-29T12:03:00.892Z,96216.78
2017-11-29T12:05:28.481Z,96218.64
2017-11-29T12:07:55.988Z,96218.33
2017-11-29T12:10:23.772Z,96213.91
2017-11-29T12:12:51.297Z,96219.02
2017-11-29T12:15:18.832Z,96219.55
2017-11-29T12:17:46.548Z,96219.49
2017-11-29T12:20:14.081Z,96210.44
2017-11-29T12:22:41.649Z,96218.13
2017-11-29T12:25:09.432Z,96211.30
2017-11-29T12:27:36.968Z,96211.70
2017-11-29T12:30:04.655Z,96218.70
2017-11-29T12:32:32.516Z,96213.61
2017-11-29T12:35:00.041Z,96219.50
2017-11-29T12:37:27.557Z,96216.22
2017-11-29T12:39:55.300Z,96215.73
2017-11-29T12:42:22.878Z,96217.78
2017-11-29T12:44:50.552Z,96217.37
2017-11-29T12:47:18.505Z,96218.60
2017-11-29T12:49:58.049Z,96216.05
2017-11-29T12:52:26.014Z,96208.12
2017-11-29T12:54:53.574Z,96206.65
2017-11-29T12:57:21.081Z,96204.41
2017-11-29T12:59:48.971Z,96209.42
2017-11-29T13:02:16.484Z,96207.37
2017-11-29T13:04:43.999Z,96210.73
2017-11-29T13:07:11.755Z,96210.55
2017-11-29T13:09:39.457Z,96214.92
2017-11-29T13:12:07.000Z,96209.17
2017-11-29T13:14:34.694Z,96211.14
2017-11-29T13:17:02.213Z,96213.74
2017-11-29T13:19:29.781Z,96216.95
2017-11-29T13:21:57.551Z,96208.50
2017-11-29T13:24:25.184Z,96207.47
2017-11-29T13:26:52.748Z,96204.80
2017-11-29T13:29:20.358Z,96202.97
2017-11-29T13:31:47.884Z,96209.17
2017-11-29T13:34:16.181Z,96207.66
2017-11-29T13:36:43.920Z,96211.08
2017-11-29T13:39:11.431Z,96219.39
2017-11-29T13:41:38.956Z,96214.98
2017-11-29T13:44:06.915Z,96214.09
2017-11-29T13:46:34.465Z,96219.44
2017-11-29T13:49:02.025Z,96215.61
2017-11-29T13:51:29.778Z,96215.27
2017-11-29T13:53:57.348Z,96218.75
2017-11-29T13:56:25.044Z,96223.41
2017-11-29T13:58:52.854Z,96223.77
2017-11-29T14:01:20.386Z,96218.16
2017-11-29T14:03:47.917Z,96219.79
2017-11-29T14:06:15.736Z,96214.09
2017-11-29T14:08:43.272Z,96216.72
2017-11-29T14:11:10.793Z,96217.58
2017-11-29T14:13:38.375Z,96212.37
2017-11-29T14:16:05.918Z,96209.42
2017-11-29T14:18:33.451Z,96213.52
2017-11-29T14:21:01.310Z,96211.22
2017-11-29T14:23:28.829Z,96210.89
2017-11-29T14:25:56.435Z,96221.32
2017-11-29T14:28:24.179Z,96221.00
2017-11-29T14:30:51.875Z,96223.44
2017-11-29T14:33:19.454Z,96220.06
2017-11-29T14:35:47.286Z,96231.23
2017-11-29T14:38:14.826Z,96226.50
2017-11-29T14:40:42.404Z,96225.36
2017-11-29T14:43:09.993Z,96232.47
2017-11-29T14:45:37.522Z,96233.28
2017-11-29T14:48:05.202Z,96226.76
2017-11-29T14:50:33.254Z,96237.05
2017-11-29T14:53:00.947Z,96234.41
2017-11-29T14:55:29.705Z,96238.33
2017-11-29T14:57:57.503Z,96235.55
2017-11-29T15:00:25.240Z,96232.36
2017-11-29T15:02:52.802Z,96233.66
2017-11-29T15:05:20.665Z,96238.97
2017-11-29T15:07:48.318Z,96238.26
2017-11-29T15:10:15.936Z,96242.14
2017-11-29T15:12:43.641Z,96243.21
2017-11-29T15:15:11.154Z,96242.58
2017-11-29T15:17:38.681Z,96246.70
2017-11-29T15:20:06.320Z,96240.43
2017-11-29T15:22:33.986Z,96241.73
2017-11-29T15:25:03.818Z,96235.45
2017-11-29T15:27:31.981Z,96245.04
2017-11-29T15:30:00.244Z,96236.33
2017-11-29T15:32:28.106Z,96241.63
2017-11-29T15:34:56.109Z,96235.41
2017-11-29T15:37:23.651Z,96229.45
2017-11-29T15:39:51.182Z,96236.75
2017-11-29T15:42:18.884Z,96242.19
2017-11-29T15:44:46.556Z,96241.26
2017-11-29T15:47:14.180Z,96241.22
2017-11-29T15:49:41.841Z,96244.05
2017-11-29T15:52:09.440Z,96237.38
2017-11-29T15:54:36.992Z,96248.03
2017-11-29T15:57:04.703Z,96247.70
2017-11-29T15:59:32.235Z,96247.06
2017-11-29T16:01:59.758Z,96253.13
2017-11-29T16:04:27.341Z,96251.47
2017-11-29T16:06:54.929Z,96258.73
2017-11-29T16:09:22.453Z,96261.94
2017-11-29T16:11:50.177Z,96261.28
2017-11-29T16:14:17.795Z,96261.55
2017-11-29T16:16:45.372Z,96268.08
2017-11-29T16:19:13.167Z,96263.30
2017-11-29T16:21:40.721Z,96266.08
2017-11-29T16:24:08.269Z,96265.17
2017-11-29T16:26:35.903Z,96270.25
2017-11-29T16:29:03.457Z,96262.20
2017-11-29T16:31:30.997Z,96269.11
2017-11-29T16:33:58.904Z,96268.38
2017-11-29T16:36:26.432Z,96269.62
2017-11-29T16:38:53.975Z,96270.23
2017-11-29T16:41:21.706Z,96269.58
2017-11-29T16:43:49.373Z,96276.89
2017-11-29T16:46:16.934Z,96279.25
2017-11-29T16:48:44.746Z,96273.71
2017-11-29T16:51:12.454Z,96280.55
2017-11-29T16:53:40.730Z,96280.02
2017-11-29T16:56:08.796Z,96277.77
2017-11-29T16:58:36.670Z,96275.78
2017-11-29T17:01:04.424Z,96275.56
2017-11-29T17:03:32.299Z,96269.20
2017-11-29T17:05:59.878Z,96272.06
2017-11-29T17:08:27.739Z,96278.86
2017-11-29T17:10:56.006Z,96271.61
2017-11-29T17:13:23.865Z,96268.50
2017-11-29T17:15:51.639Z,96271.01
2017-11-29T17:18:19.719Z,96276.48
2017-11-29T17:20:48.144Z,96279.40
2017-11-29T17:23:15.974Z,96276.79
2017-11-29T17:25:43.812Z,96280.99
2017-11-29T17:28:11.575Z,96276.28
2017-11-29T17:30:39.544Z,96282.39
2017-11-29T17:33:07.438Z,96278.27
2017-11-29T17:35:35.379Z,96276.78
2017-11-29T17:38:03.142Z,96270.75
2017-11-29T17:40:31.128Z,96271.48
2017-11-29T17:42:59.184Z,96266.31
2017-11-29T17:45:26.980Z,96271.16
2017-11-29T17:47:54.852Z,96274.00
2017-11-29T17:50:23.090Z,96272.87
2017-11-29T17:52:51.058Z,96272.30
2017-11-29T17:55:19.436Z,96279.56
2017-11-29T17:57:48.020Z,96275.41
2017-11-29T18:00:15.721Z,96273.66
2017-11-29T18:02:43.962Z,96277.19
2017-11-29T18:05:11.724Z,96277.23
2017-11-29T18:07:39.908Z,96283.01
2017-11-29T18:10:08.177Z,96281.55
2017-11-29T18:12:36.037Z,96288.48
2017-11-29T18:15:04.518Z,96286.25
2017-11-29T18:17:32.386Z,96277.08
2017-11-29T18:20:00.681Z,96283.25
2017-11-29T18:22:28.422Z,96285.08
2017-11-29T18:24:56.564Z,96283.14
2017-11-29T18:27:24.383Z,96282.48
2017-11-29T18:29:52.239Z,96280.39
2017-11-29T18:32:20.399Z,96282.77
2017-11-29T18:34:48.019Z,96279.14
2017-11-29T18:37:15.826Z,96283.52
2017-11-29T18:39:43.841Z,96287.73
2017-11-29T18:42:11.758Z,96284.95
2017-11-29T18:44:39.644Z,96287.30
2017-11-29T18:47:07.803Z,96289.98
2017-11-29T18:49:35.556Z,96291.05
2017-11-29T18:52:03.273Z,96289.55
2017-11-29T18:54:31.371Z,96289.67
2017-11-29T18:56:59.068Z,96287.26
2017-11-29T18:59:26.723Z,96291.67
2017-11-29T19:01:55.111Z,96291.81
2017-11-29T19:04:22.867Z,96289.59
2017-11-29T19:06:50.632Z,96293.67
2017-11-29T19:09:18.466Z,96292.92
2017-11-29T19:11:46.076Z,96290.80
2017-11-29T19:14:13.818Z,96288.27
2017-11-29T19:16:41.487Z,96294.84
2017-11-29T19:19:09.143Z,96293.17
2017-11-29T19:21:36.920Z,96292.98
2017-11-29T19:24:04.857Z,96292.84
2017-11-29T19:26:32.442Z,96298.50
2017-11-29T19:29:00.301Z,96302.88
2017-11-29T19:31:28.063Z,96301.98
2017-11-29T19:33:55.687Z,96306.91
2017-11-29T19:36:23.321Z,96310.95
2017-11-29T19:38:51.039Z,96309.78
2017-11-29T19:41:18.817Z,96314.01
2017-11-29T19:43:46.680Z,96315.47
2017-11-29T19:46:14.656Z,96319.50
2017-11-29T19:48:42.620Z,96324.58
2017-11-29T19:51:10.484Z,96318.73
2017-11-29T19:53:38.544Z,96321.61
2017-11-29T19:56:06.539Z,96328.02
2017-11-29T19:58:34.445Z,96321.05
2017-11-29T20:01:02.611Z,96319.50
2017-11-29T20:03:30.502Z,96319.27
2017-11-29T20:05:58.910Z,96324.14
2017-11-29T20:08:26.984Z,96316.76
2017-11-29T20:10:54.859Z,96318.77
2017-11-29T20:13:22.714Z,96319.94
2017-11-29T20:15:50.787Z,96319.03
2017-11-29T20:18:18.651Z,96314.14
2017-11-29T20:20:46.428Z,96319.72
2017-11-29T20:23:14.390Z,96317.30
2017-11-29T20:25:42.202Z,96307.91
2017-11-29T20:28:10.141Z,96310.92
2017-11-29T20:30:38.195Z,96312.38
2017-11-29T20:33:05.964Z,96312.80
2017-11-29T20:35:33.943Z,96309.54
2017-11-29T20:38:01.792Z,96319.57
2017-11-29T20:40:29.572Z,96310.23
2017-11-29T20:42:57.436Z,96313.09
2017-11-29T20:45:25.796Z,96309.61
2017-11-29T20:47:53.564Z,96310.94
2017-11-29T20:50:21.426Z,96303.59
2017-11-29T20:52:56.268Z,96303.42
2017-11-29T20:55:24.007Z,96298.16
2017-11-29T20:57:51.733Z,96298.92
2017-11-29T21:00:19.872Z,96300.72
2017-11-29T21:02:47.823Z,96310.71
2017-11-29T21:05:15.656Z,96300.77
2017-11-29T21:07:43.777Z,96300.89
2017-11-29T21:10:12.452Z,96300.70
2017-11-29T21:12:40.415Z,96300.06
2017-11-29T21:15:08.813Z,96303.94
2017-11-29T21:17:37.276Z,96303.36
2017-11-29T21:20:05.141Z,96301.75
2017-11-29T21:22:33.851Z,96304.55
2017-11-29T21:25:01.648Z,96304.36
2017-11-29T21:27:29.566Z,96307.09
2017-11-29T21:29:57.830Z,96298.95
2017-11-29T21:32:26.112Z,96312.39
2017-11-29T21:34:53.785Z,96312.00
2017-11-29T21:37:21.988Z,96306.68
2017-11-29T21:39:49.704Z,96312.35
2017-11-29T21:42:17.494Z,96307.23
2017-11-29T21:44:45.338Z,96298.19
2017-11-29T21:47:13.206Z,96312.36
2017-11-29T21:49:41.077Z,96313.78
2017-11-29T21:52:08.948Z,96307.36
2017-11-29T21:54:36.585Z,96306.64
2017-11-29T21:57:04.217Z,96307.80
2017-11-29T21:59:32.130Z,96303.70
2017-11-29T22:01:59.791Z,96304.73
2017-11-29T22:04:27.370Z,96306.23
2017-11-29T22:06:55.421Z,96303.47
2017-11-29T22:09:22.979Z,96298.28
2017-11-29T22:11:50.962Z,96299.98
2017-11-29T22:14:18.692Z,96304.30
2017-11-29T22:16:46.208Z,96299.80
2017-11-29T22:19:13.733Z,96298.59
2017-11-29T22:21:41.576Z,96295.20
2017-11-29T22:24:09.099Z,96297.23
2017-11-29T22:26:36.710Z,96303.48
2017-11-29T22:29:04.476Z,96305.55
2017-11-29T22:31:32.035Z,96300.88
2017-11-29T22:33:59.612Z,96294.67
2017-11-29T22:36:27.408Z,96300.05
2017-11-29T22:38:55.841Z,96293.27
2017-11-29T22:41:23.418Z,96287.95
2017-11-29T22:43:51.470Z,96284.28
2017-11-29T22:46:19.335Z,96283.75
2017-11-29T22:48:46.952Z,96278.45
2017-11-29T22:51:14.965Z,96277.62
2017-11-29T22:53:42.530Z,96277.91
2017-11-29T22:56:10.041Z,96270.95
2017-11-29T22:58:37.758Z,96266.55
2017-11-29T23:01:05.287Z,96264.42
2017-11-29T23:03:32.813Z,96268.09
2017-11-29T23:06:00.611Z,96268.16
2017-11-29T23:10:54.956Z,96263.64
2017-11-29T23:13:22.609Z,96257.05
2017-11-29T23:15:50.170Z,96256.87
2017-11-29T23:18:17.697Z,96258.70
2017-11-29T23:20:45.279Z,96254.38
2017-11-29T23:23:12.825Z,96246.53
2017-11-29T23:25:40.349Z,96245.81
2017-11-29T23:28:07.947Z,96252.00
2017-11-29T23:30:35.502Z,96249.02
2017-11-29T23:33:03.045Z,96241.77
2017-11-29T23:35:30.706Z,96243.90
2017-11-29T23:37:58.236Z,96240.05
2017-11-29T23:40:25.760Z,96240.20
2017-11-29T23:42:53.503Z,96235.27
2017-11-29T23:45:21.061Z,96231.89
2017-11-29T23:47:48.622Z,96232.52
2017-11-29T23:50:16.507Z,96230.12
2017-11-29T23:52:44.024Z,96224.53
2017-11-29T23:55:11.543Z,96229.59
2017-11-29T23:57:39.425Z,96221.80
